sensor_id;sensor_type;location;lat;lon;timestamp;temperature;humidity
12926;DHT22;6529;50.566;9.774;2022-11-20T00:02:22;-0.90;99.90
12926;DHT22;6529;50.566;9.774;2022-11-20T00:04:48;-0.90;99.90
12926;DHT22;6529;50.566;9.774;2022-11-20T00:07:14;-0.90;99.90
12926;DHT22;6529;50.566;9.774;2022-11-20T00:09:40;-1.00;99.90
12926;DHT22;6529;50.566;9.774;2022-11-20T00:12:05;-1.00;99.90
12926;DHT22;6529;50.566;9.774;2022-11-20T00:14:31;-0.90;99.90
12926;DHT22;6529;50.566;9.774;2022-11-20T00:16:56;-0.90;99.90
12926;DHT22;6529;50.566;9.774;2022-11-20T00:19:22;-0.90;99.90
12926;DHT22;6529;50.566;9.774;2022-11-20T00:21:48;-0.80;99.90
12926;DHT22;6529;50.566;9.774;2022-11-20T00:24:16;-0.80;99.90
12926;DHT22;6529;50.566;9.774;2022-11-20T00:26:42;-0.80;99.90
12926;DHT22;6529;50.566;9.774;2022-11-20T00:29:09;-0.90;99.90
12926;DHT22;6529;50.566;9.774;2022-11-20T00:31:35;-0.90;99.90
12926;DHT22;6529;50.566;9.774;2022-11-20T00:34:01;-0.90;99.90
12926;DHT22;6529;50.566;9.774;2022-11-20T00:36:28;-0.80;99.90
12926;DHT22;6529;50.566;9.774;2022-11-20T00:38:56;-0.80;99.90
12926;DHT22;6529;50.566;9.774;2022-11-20T00:41:22;-0.80;99.90
12926;DHT22;6529;50.566;9.774;2022-11-20T00:43:48;-0.80;99.90
12926;DHT22;6529;50.566;9.774;2022-11-20T00:46:19;-0.90;99.90
12926;DHT22;6529;50.566;9.774;2022-11-20T00:48:45;-0.90;99.90
12926;DHT22;6529;50.566;9.774;2022-11-20T00:51:16;-0.90;99.90
12926;DHT22;6529;50.566;9.774;2022-11-20T00:53:42;-0.90;99.90
12926;DHT22;6529;50.566;9.774;2022-11-20T00:56:11;-0.90;99.90
12926;DHT22;6529;50.566;9.774;2022-11-20T00:58:38;-0.80;99.90
12926;DHT22;6529;50.566;9.774;2022-11-20T01:01:10;-0.80;99.90
12926;DHT22;6529;50.566;9.774;2022-11-20T01:03:42;-0.70;99.90
12926;DHT22;6529;50.566;9.774;2022-11-20T01:06:14;-0.80;99.90
12926;DHT22;6529;50.566;9.774;2022-11-20T01:08:40;-0.90;99.90
12926;DHT22;6529;50.566;9.774;2022-11-20T01:11:10;-1.00;99.90
12926;DHT22;6529;50.566;9.774;2022-11-20T01:13:37;-1.10;99.90
12926;DHT22;6529;50.566;9.774;2022-11-20T01:16:13;-1.10;99.90
12926;DHT22;6529;50.566;9.774;2022-11-20T01:18:41;-1.20;99.90
12926;DHT22;6529;50.566;9.774;2022-11-20T01:21:10;-1.10;99.90
12926;DHT22;6529;50.566;9.774;2022-11-20T01:23:38;-1.20;99.90
12926;DHT22;6529;50.566;9.774;2022-11-20T01:26:07;-1.10;99.90
12926;DHT22;6529;50.566;9.774;2022-11-20T01:28:33;-1.00;99.90
12926;DHT22;6529;50.566;9.774;2022-11-20T01:31:00;-1.00;99.90
12926;DHT22;6529;50.566;9.774;2022-11-20T01:33:26;-0.90;99.90
12926;DHT22;6529;50.566;9.774;2022-11-20T01:35:52;-0.90;99.90
12926;DHT22;6529;50.566;9.774;2022-11-20T01:38:18;-0.90;99.90
12926;DHT22;6529;50.566;9.774;2022-11-20T01:40:45;-0.80;99.90
12926;DHT22;6529;50.566;9.774;2022-11-20T01:43:19;-0.80;99.90
12926;DHT22;6529;50.566;9.774;2022-11-20T01:51:04;-0.80;99.90
12926;DHT22;6529;50.566;9.774;2022-11-20T01:53:34;-0.80;99.90
12926;DHT22;6529;50.566;9.774;2022-11-20T01:56:04;-0.80;99.90
12926;DHT22;6529;50.566;9.774;2022-11-20T01:58:34;-0.70;99.90
12926;DHT22;6529;50.566;9.774;2022-11-20T02:01:01;-0.60;99.90
12926;DHT22;6529;50.566;9.774;2022-11-20T02:03:28;-0.60;99.90
12926;DHT22;6529;50.566;9.774;2022-11-20T02:06:17;-0.60;99.90
12926;DHT22;6529;50.566;9.774;2022-11-20T02:08:44;-0.50;99.90
12926;DHT22;6529;50.566;9.774;2022-11-20T02:11:10;-0.50;99.90
12926;DHT22;6529;50.566;9.774;2022-11-20T02:13:35;-0.60;99.90
12926;DHT22;6529;50.566;9.774;2022-11-20T02:18:43;-0.70;99.90
12926;DHT22;6529;50.566;9.774;2022-11-20T02:26:53;-0.40;99.90
12926;DHT22;6529;50.566;9.774;2022-11-20T02:29:25;-0.40;99.90
12926;DHT22;6529;50.566;9.774;2022-11-20T02:31:51;-0.40;99.90
12926;DHT22;6529;50.566;9.774;2022-11-20T02:34:19;-0.30;99.90
12926;DHT22;6529;50.566;9.774;2022-11-20T02:36:44;-0.40;99.90
12926;DHT22;6529;50.566;9.774;2022-11-20T02:39:11;-0.40;99.90
12926;DHT22;6529;50.566;9.774;2022-11-20T02:41:38;-0.40;99.90
12926;DHT22;6529;50.566;9.774;2022-11-20T02:44:05;-0.40;99.90
12926;DHT22;6529;50.566;9.774;2022-11-20T02:46:31;-0.30;99.90
12926;DHT22;6529;50.566;9.774;2022-11-20T02:48:57;-0.40;99.90
12926;DHT22;6529;50.566;9.774;2022-11-20T02:51:23;-0.40;99.90
12926;DHT22;6529;50.566;9.774;2022-11-20T02:53:49;-0.40;99.90
12926;DHT22;6529;50.566;9.774;2022-11-20T02:56:15;-0.40;99.90
12926;DHT22;6529;50.566;9.774;2022-11-20T02:58:41;-0.40;99.90
12926;DHT22;6529;50.566;9.774;2022-11-20T03:01:06;-0.30;99.90
12926;DHT22;6529;50.566;9.774;2022-11-20T03:03:32;-0.30;99.90
12926;DHT22;6529;50.566;9.774;2022-11-20T03:05:59;-0.40;99.90
12926;DHT22;6529;50.566;9.774;2022-11-20T03:08:24;-0.30;99.90
12926;DHT22;6529;50.566;9.774;2022-11-20T03:10:50;-0.30;99.90
12926;DHT22;6529;50.566;9.774;2022-11-20T03:13:15;-0.40;99.90
12926;DHT22;6529;50.566;9.774;2022-11-20T03:15:41;-0.40;99.90
12926;DHT22;6529;50.566;9.774;2022-11-20T03:18:07;-0.40;99.90
12926;DHT22;6529;50.566;9.774;2022-11-20T03:20:33;-0.40;99.90
12926;DHT22;6529;50.566;9.774;2022-11-20T03:22:59;-0.40;99.90
12926;DHT22;6529;50.566;9.774;2022-11-20T03:25:25;-0.40;99.90
12926;DHT22;6529;50.566;9.774;2022-11-20T03:27:50;-0.50;99.90
12926;DHT22;6529;50.566;9.774;2022-11-20T03:30:16;-0.40;99.90
12926;DHT22;6529;50.566;9.774;2022-11-20T03:32:41;-0.40;99.90
12926;DHT22;6529;50.566;9.774;2022-11-20T03:35:07;-0.30;99.90
12926;DHT22;6529;50.566;9.774;2022-11-20T03:37:33;-0.30;99.90
12926;DHT22;6529;50.566;9.774;2022-11-20T03:39:59;-0.30;99.90
12926;DHT22;6529;50.566;9.774;2022-11-20T03:42:24;-0.20;99.90
12926;DHT22;6529;50.566;9.774;2022-11-20T03:45:08;-0.20;99.90
12926;DHT22;6529;50.566;9.774;2022-11-20T03:47:34;-0.10;99.90
12926;DHT22;6529;50.566;9.774;2022-11-20T03:49:59;-0.10;99.90
12926;DHT22;6529;50.566;9.774;2022-11-20T03:52:25;-0.30;99.90
12926;DHT22;6529;50.566;9.774;2022-11-20T03:54:50;-0.40;99.90
12926;DHT22;6529;50.566;9.774;2022-11-20T03:57:16;-0.40;99.90
12926;DHT22;6529;50.566;9.774;2022-11-20T03:59:41;-0.40;99.90
12926;DHT22;6529;50.566;9.774;2022-11-20T04:02:07;-0.50;99.90
12926;DHT22;6529;50.566;9.774;2022-11-20T04:04:33;-0.40;99.90
12926;DHT22;6529;50.566;9.774;2022-11-20T04:06:58;-0.40;99.90
12926;DHT22;6529;50.566;9.774;2022-11-20T04:09:24;-0.40;99.90
12926;DHT22;6529;50.566;9.774;2022-11-20T04:11:49;-0.40;99.90
12926;DHT22;6529;50.566;9.774;2022-11-20T04:14:16;-0.40;99.90
12926;DHT22;6529;50.566;9.774;2022-11-20T04:16:42;-0.30;99.90
12926;DHT22;6529;50.566;9.774;2022-11-20T04:19:13;-0.20;99.90
12926;DHT22;6529;50.566;9.774;2022-11-20T04:21:39;-0.20;99.90
12926;DHT22;6529;50.566;9.774;2022-11-20T04:24:04;-0.20;99.90
12926;DHT22;6529;50.566;9.774;2022-11-20T04:26:30;-0.20;99.90
12926;DHT22;6529;50.566;9.774;2022-11-20T04:28:57;-0.10;99.90
12926;DHT22;6529;50.566;9.774;2022-11-20T04:31:25;-0.10;99.90
12926;DHT22;6529;50.566;9.774;2022-11-20T04:33:51;0.00;99.90
12926;DHT22;6529;50.566;9.774;2022-11-20T04:36:22;0.00;99.90
12926;DHT22;6529;50.566;9.774;2022-11-20T04:38:59;0.00;99.90
12926;DHT22;6529;50.566;9.774;2022-11-20T04:41:28;0.10;99.90
12926;DHT22;6529;50.566;9.774;2022-11-20T04:43:57;0.10;99.90
12926;DHT22;6529;50.566;9.774;2022-11-20T04:46:26;0.10;99.90
12926;DHT22;6529;50.566;9.774;2022-11-20T04:48:52;0.00;99.90
12926;DHT22;6529;50.566;9.774;2022-11-20T04:51:18;0.00;99.90
12926;DHT22;6529;50.566;9.774;2022-11-20T04:53:43;0.00;99.90
12926;DHT22;6529;50.566;9.774;2022-11-20T04:56:10;0.10;99.90
12926;DHT22;6529;50.566;9.774;2022-11-20T04:58:37;0.10;99.90
12926;DHT22;6529;50.566;9.774;2022-11-20T05:01:11;0.00;99.90
12926;DHT22;6529;50.566;9.774;2022-11-20T05:03:38;0.00;99.90
12926;DHT22;6529;50.566;9.774;2022-11-20T05:06:05;0.00;99.90
12926;DHT22;6529;50.566;9.774;2022-11-20T05:08:32;0.10;99.90
12926;DHT22;6529;50.566;9.774;2022-11-20T05:11:19;0.20;99.90
12926;DHT22;6529;50.566;9.774;2022-11-20T05:13:45;0.10;99.90
12926;DHT22;6529;50.566;9.774;2022-11-20T05:16:17;0.10;99.90
12926;DHT22;6529;50.566;9.774;2022-11-20T05:18:43;0.20;99.90
12926;DHT22;6529;50.566;9.774;2022-11-20T05:21:09;0.10;99.90
12926;DHT22;6529;50.566;9.774;2022-11-20T05:23:36;0.00;99.90
12926;DHT22;6529;50.566;9.774;2022-11-20T05:26:02;0.00;99.90
12926;DHT22;6529;50.566;9.774;2022-11-20T05:28:29;0.00;99.90
12926;DHT22;6529;50.566;9.774;2022-11-20T05:30:55;0.00;99.90
12926;DHT22;6529;50.566;9.774;2022-11-20T05:33:20;0.00;99.90
12926;DHT22;6529;50.566;9.774;2022-11-20T05:35:46;0.00;99.90
12926;DHT22;6529;50.566;9.774;2022-11-20T05:38:13;0.00;99.90
12926;DHT22;6529;50.566;9.774;2022-11-20T05:40:38;0.00;99.90
12926;DHT22;6529;50.566;9.774;2022-11-20T05:43:04;-0.10;99.90
12926;DHT22;6529;50.566;9.774;2022-11-20T05:45:30;0.00;99.90
12926;DHT22;6529;50.566;9.774;2022-11-20T05:47:59;0.00;99.90
12926;DHT22;6529;50.566;9.774;2022-11-20T05:50:26;0.10;99.90
12926;DHT22;6529;50.566;9.774;2022-11-20T05:52:51;0.10;99.90
12926;DHT22;6529;50.566;9.774;2022-11-20T05:55:17;0.20;99.90
12926;DHT22;6529;50.566;9.774;2022-11-20T05:57:42;0.20;99.90
12926;DHT22;6529;50.566;9.774;2022-11-20T06:00:08;0.20;99.90
12926;DHT22;6529;50.566;9.774;2022-11-20T06:02:35;0.30;99.90
12926;DHT22;6529;50.566;9.774;2022-11-20T06:05:01;0.30;99.90
12926;DHT22;6529;50.566;9.774;2022-11-20T06:07:26;0.30;99.90
12926;DHT22;6529;50.566;9.774;2022-11-20T06:09:52;0.40;99.90
12926;DHT22;6529;50.566;9.774;2022-11-20T06:12:17;0.30;99.90
12926;DHT22;6529;50.566;9.774;2022-11-20T06:14:43;0.40;99.90
12926;DHT22;6529;50.566;9.774;2022-11-20T06:17:08;0.40;99.90
12926;DHT22;6529;50.566;9.774;2022-11-20T06:19:34;0.50;99.90
12926;DHT22;6529;50.566;9.774;2022-11-20T06:22:00;0.50;99.90
12926;DHT22;6529;50.566;9.774;2022-11-20T06:24:25;0.40;99.90
12926;DHT22;6529;50.566;9.774;2022-11-20T06:26:51;0.30;99.90
12926;DHT22;6529;50.566;9.774;2022-11-20T06:29:16;0.40;99.90
12926;DHT22;6529;50.566;9.774;2022-11-20T06:31:42;0.40;99.90
12926;DHT22;6529;50.566;9.774;2022-11-20T06:34:08;0.30;99.90
12926;DHT22;6529;50.566;9.774;2022-11-20T06:36:34;0.30;99.90
12926;DHT22;6529;50.566;9.774;2022-11-20T06:39:00;0.30;99.90
12926;DHT22;6529;50.566;9.774;2022-11-20T06:41:26;0.40;99.90
12926;DHT22;6529;50.566;9.774;2022-11-20T06:43:51;1.20;99.90
12926;DHT22;6529;50.566;9.774;2022-11-20T06:46:19;1.90;99.90
12926;DHT22;6529;50.566;9.774;2022-11-20T06:48:46;2.40;99.90
12926;DHT22;6529;50.566;9.774;2022-11-20T06:51:12;2.90;99.90
12926;DHT22;6529;50.566;9.774;2022-11-20T06:53:38;3.30;99.90
12926;DHT22;6529;50.566;9.774;2022-11-20T06:56:04;2.70;99.90
12926;DHT22;6529;50.566;9.774;2022-11-20T06:58:32;2.10;99.90
12926;DHT22;6529;50.566;9.774;2022-11-20T07:01:03;1.60;99.90
12926;DHT22;6529;50.566;9.774;2022-11-20T07:03:29;1.40;99.90
12926;DHT22;6529;50.566;9.774;2022-11-20T07:05:56;1.30;99.90
12926;DHT22;6529;50.566;9.774;2022-11-20T07:08:21;1.10;99.90
12926;DHT22;6529;50.566;9.774;2022-11-20T07:10:47;1.10;99.90
12926;DHT22;6529;50.566;9.774;2022-11-20T07:13:13;1.00;99.90
12926;DHT22;6529;50.566;9.774;2022-11-20T07:15:39;0.90;99.90
12926;DHT22;6529;50.566;9.774;2022-11-20T07:18:05;0.90;99.90
12926;DHT22;6529;50.566;9.774;2022-11-20T07:20:30;0.70;99.90
12926;DHT22;6529;50.566;9.774;2022-11-20T07:22:56;0.70;99.90
12926;DHT22;6529;50.566;9.774;2022-11-20T07:25:23;0.70;99.90
12926;DHT22;6529;50.566;9.774;2022-11-20T07:27:49;0.60;99.90
12926;DHT22;6529;50.566;9.774;2022-11-20T07:30:16;0.60;99.90
12926;DHT22;6529;50.566;9.774;2022-11-20T07:32:41;0.60;99.90
12926;DHT22;6529;50.566;9.774;2022-11-20T07:35:07;0.50;99.90
12926;DHT22;6529;50.566;9.774;2022-11-20T07:37:36;0.50;99.90
12926;DHT22;6529;50.566;9.774;2022-11-20T07:40:02;0.60;99.90
12926;DHT22;6529;50.566;9.774;2022-11-20T07:42:28;0.50;99.90
12926;DHT22;6529;50.566;9.774;2022-11-20T07:44:53;0.50;99.90
12926;DHT22;6529;50.566;9.774;2022-11-20T07:47:19;0.40;99.90
12926;DHT22;6529;50.566;9.774;2022-11-20T07:49:44;0.40;99.90
12926;DHT22;6529;50.566;9.774;2022-11-20T07:52:10;0.40;99.90
12926;DHT22;6529;50.566;9.774;2022-11-20T07:54:35;0.40;99.90
12926;DHT22;6529;50.566;9.774;2022-11-20T07:57:01;0.40;99.90
12926;DHT22;6529;50.566;9.774;2022-11-20T07:59:26;0.50;99.90
12926;DHT22;6529;50.566;9.774;2022-11-20T08:01:52;0.60;99.90
12926;DHT22;6529;50.566;9.774;2022-11-20T08:04:18;0.60;99.90
12926;DHT22;6529;50.566;9.774;2022-11-20T08:06:43;0.70;99.90
12926;DHT22;6529;50.566;9.774;2022-11-20T08:09:09;0.70;99.90
12926;DHT22;6529;50.566;9.774;2022-11-20T08:11:34;0.80;99.90
12926;DHT22;6529;50.566;9.774;2022-11-20T08:14:32;0.80;99.90
12926;DHT22;6529;50.566;9.774;2022-11-20T08:16:58;0.90;99.90
12926;DHT22;6529;50.566;9.774;2022-11-20T08:19:24;1.00;99.90
12926;DHT22;6529;50.566;9.774;2022-11-20T08:21:50;1.00;99.90
12926;DHT22;6529;50.566;9.774;2022-11-20T08:24:15;1.00;99.90
12926;DHT22;6529;50.566;9.774;2022-11-20T08:26:41;1.10;99.90
12926;DHT22;6529;50.566;9.774;2022-11-20T08:29:06;1.10;99.90
12926;DHT22;6529;50.566;9.774;2022-11-20T08:31:32;1.20;99.90
12926;DHT22;6529;50.566;9.774;2022-11-20T08:33:58;1.20;99.90
12926;DHT22;6529;50.566;9.774;2022-11-20T08:36:24;1.20;99.90
12926;DHT22;6529;50.566;9.774;2022-11-20T08:38:51;1.30;99.90
12926;DHT22;6529;50.566;9.774;2022-11-20T08:41:17;1.30;99.90
12926;DHT22;6529;50.566;9.774;2022-11-20T08:43:56;1.30;99.90
12926;DHT22;6529;50.566;9.774;2022-11-20T08:46:23;1.30;99.90
12926;DHT22;6529;50.566;9.774;2022-11-20T08:48:48;1.30;99.90
12926;DHT22;6529;50.566;9.774;2022-11-20T08:51:14;1.40;99.90
12926;DHT22;6529;50.566;9.774;2022-11-20T08:53:40;1.40;99.90
12926;DHT22;6529;50.566;9.774;2022-11-20T08:56:06;1.40;99.90
12926;DHT22;6529;50.566;9.774;2022-11-20T08:58:32;1.40;99.90
12926;DHT22;6529;50.566;9.774;2022-11-20T09:00:57;1.40;99.90
12926;DHT22;6529;50.566;9.774;2022-11-20T09:03:23;1.40;99.90
12926;DHT22;6529;50.566;9.774;2022-11-20T09:05:49;1.40;99.90
12926;DHT22;6529;50.566;9.774;2022-11-20T09:08:14;1.40;99.90
12926;DHT22;6529;50.566;9.774;2022-11-20T09:10:40;1.40;99.90
12926;DHT22;6529;50.566;9.774;2022-11-20T09:13:06;1.40;99.90
12926;DHT22;6529;50.566;9.774;2022-11-20T09:15:32;1.40;99.90
12926;DHT22;6529;50.566;9.774;2022-11-20T09:18:01;1.50;99.90
12926;DHT22;6529;50.566;9.774;2022-11-20T09:20:28;1.50;99.90
12926;DHT22;6529;50.566;9.774;2022-11-20T09:22:54;1.50;99.90
12926;DHT22;6529;50.566;9.774;2022-11-20T09:25:20;1.50;99.90
12926;DHT22;6529;50.566;9.774;2022-11-20T09:27:45;1.60;99.90
12926;DHT22;6529;50.566;9.774;2022-11-20T09:30:15;1.60;99.90
12926;DHT22;6529;50.566;9.774;2022-11-20T09:32:41;1.60;99.90
12926;DHT22;6529;50.566;9.774;2022-11-20T09:35:08;1.50;99.90
12926;DHT22;6529;50.566;9.774;2022-11-20T09:37:34;1.40;99.90
12926;DHT22;6529;50.566;9.774;2022-11-20T09:40:00;1.50;99.90
12926;DHT22;6529;50.566;9.774;2022-11-20T09:45:18;1.60;99.90
12926;DHT22;6529;50.566;9.774;2022-11-20T09:54:10;1.50;99.90
12926;DHT22;6529;50.566;9.774;2022-11-20T09:56:40;1.50;99.90
12926;DHT22;6529;50.566;9.774;2022-11-20T09:59:08;1.50;99.90
12926;DHT22;6529;50.566;9.774;2022-11-20T10:01:39;1.60;99.90
12926;DHT22;6529;50.566;9.774;2022-11-20T10:04:10;1.50;99.90
12926;DHT22;6529;50.566;9.774;2022-11-20T10:06:53;1.50;99.90
12926;DHT22;6529;50.566;9.774;2022-11-20T10:09:37;1.60;99.90
12926;DHT22;6529;50.566;9.774;2022-11-20T10:18:02;1.70;99.90
12926;DHT22;6529;50.566;9.774;2022-11-20T10:20:48;1.80;99.90
12926;DHT22;6529;50.566;9.774;2022-11-20T10:23:27;1.80;99.90
12926;DHT22;6529;50.566;9.774;2022-11-20T10:26:06;1.80;99.90
12926;DHT22;6529;50.566;9.774;2022-11-20T10:31:39;1.80;99.90
12926;DHT22;6529;50.566;9.774;2022-11-20T10:36:56;1.90;99.90
12926;DHT22;6529;50.566;9.774;2022-11-20T10:42:35;1.90;99.90
12926;DHT22;6529;50.566;9.774;2022-11-20T10:45:27;2.00;99.90
12926;DHT22;6529;50.566;9.774;2022-11-20T10:50:36;2.10;99.90
12926;DHT22;6529;50.566;9.774;2022-11-20T10:53:15;2.20;99.90
12926;DHT22;6529;50.566;9.774;2022-11-20T10:56:05;2.30;99.90
12926;DHT22;6529;50.566;9.774;2022-11-20T11:01:04;2.40;99.90
12926;DHT22;6529;50.566;9.774;2022-11-20T11:03:31;2.50;99.90
12926;DHT22;6529;50.566;9.774;2022-11-20T11:06:03;2.40;99.90
12926;DHT22;6529;50.566;9.774;2022-11-20T11:08:38;2.40;99.90
12926;DHT22;6529;50.566;9.774;2022-11-20T11:11:33;2.40;99.90
12926;DHT22;6529;50.566;9.774;2022-11-20T11:14:13;2.40;99.90
12926;DHT22;6529;50.566;9.774;2022-11-20T11:16:50;2.40;99.90
12926;DHT22;6529;50.566;9.774;2022-11-20T11:19:16;2.40;99.90
12926;DHT22;6529;50.566;9.774;2022-11-20T11:21:50;2.40;99.90
12926;DHT22;6529;50.566;9.774;2022-11-20T11:24:28;2.40;99.90
12926;DHT22;6529;50.566;9.774;2022-11-20T11:26:57;2.40;99.90
12926;DHT22;6529;50.566;9.774;2022-11-20T11:29:24;2.30;99.90
12926;DHT22;6529;50.566;9.774;2022-11-20T11:32:03;2.30;99.90
12926;DHT22;6529;50.566;9.774;2022-11-20T11:34:29;2.30;99.90
12926;DHT22;6529;50.566;9.774;2022-11-20T11:36:59;2.30;99.90
12926;DHT22;6529;50.566;9.774;2022-11-20T11:39:27;2.40;99.90
12926;DHT22;6529;50.566;9.774;2022-11-20T11:41:54;2.50;99.90
12926;DHT22;6529;50.566;9.774;2022-11-20T11:44:33;2.50;99.90
12926;DHT22;6529;50.566;9.774;2022-11-20T11:47:47;2.50;99.90
12926;DHT22;6529;50.566;9.774;2022-11-20T11:52:48;2.40;99.90
12926;DHT22;6529;50.566;9.774;2022-11-20T12:01:03;2.40;99.90
12926;DHT22;6529;50.566;9.774;2022-11-20T12:03:38;2.40;99.90
12926;DHT22;6529;50.566;9.774;2022-11-20T12:06:11;2.50;99.90
12926;DHT22;6529;50.566;9.774;2022-11-20T12:11:18;2.50;99.90
12926;DHT22;6529;50.566;9.774;2022-11-20T12:16:21;2.60;99.90
12926;DHT22;6529;50.566;9.774;2022-11-20T12:18:50;2.70;99.90
12926;DHT22;6529;50.566;9.774;2022-11-20T12:24:41;2.70;99.90
12926;DHT22;6529;50.566;9.774;2022-11-20T12:30:16;2.80;99.90
12926;DHT22;6529;50.566;9.774;2022-11-20T12:53:32;2.60;99.90
12926;DHT22;6529;50.566;9.774;2022-11-20T13:07:16;2.60;99.90
12926;DHT22;6529;50.566;9.774;2022-11-20T13:09:47;2.70;99.90
12926;DHT22;6529;50.566;9.774;2022-11-20T13:12:20;2.70;99.90
12926;DHT22;6529;50.566;9.774;2022-11-20T13:15:31;2.70;99.90
12926;DHT22;6529;50.566;9.774;2022-11-20T13:18:07;2.70;99.90
12926;DHT22;6529;50.566;9.774;2022-11-20T13:20:34;2.70;99.90
12926;DHT22;6529;50.566;9.774;2022-11-20T13:23:00;2.70;99.90
12926;DHT22;6529;50.566;9.774;2022-11-20T13:27:52;2.70;99.90
12926;DHT22;6529;50.566;9.774;2022-11-20T13:30:20;2.60;99.90
12926;DHT22;6529;50.566;9.774;2022-11-20T13:33:07;2.60;99.90
12926;DHT22;6529;50.566;9.774;2022-11-20T13:35:41;2.60;99.90
12926;DHT22;6529;50.566;9.774;2022-11-20T13:38:10;2.60;99.90
12926;DHT22;6529;50.566;9.774;2022-11-20T13:45:59;2.50;99.90
12926;DHT22;6529;50.566;9.774;2022-11-20T13:48:29;2.50;99.90
12926;DHT22;6529;50.566;9.774;2022-11-20T13:57:23;2.50;99.90
12926;DHT22;6529;50.566;9.774;2022-11-20T14:02:01;2.50;99.90
12926;DHT22;6529;50.566;9.774;2022-11-20T14:04:30;2.50;99.90
12926;DHT22;6529;50.566;9.774;2022-11-20T14:06:58;2.50;99.90
12926;DHT22;6529;50.566;9.774;2022-11-20T14:09:29;2.50;99.90
12926;DHT22;6529;50.566;9.774;2022-11-20T14:11:55;2.50;99.90
12926;DHT22;6529;50.566;9.774;2022-11-20T14:14:28;2.50;99.90
12926;DHT22;6529;50.566;9.774;2022-11-20T14:17:08;2.50;99.90
12926;DHT22;6529;50.566;9.774;2022-11-20T14:19:43;2.50;99.90
12926;DHT22;6529;50.566;9.774;2022-11-20T14:22:24;2.50;99.90
12926;DHT22;6529;50.566;9.774;2022-11-20T14:27:34;2.60;99.90
12926;DHT22;6529;50.566;9.774;2022-11-20T14:30:01;2.60;99.90
12926;DHT22;6529;50.566;9.774;2022-11-20T14:32:28;2.60;99.90
12926;DHT22;6529;50.566;9.774;2022-11-20T14:34:58;2.60;99.90
12926;DHT22;6529;50.566;9.774;2022-11-20T14:37:27;2.50;99.90
12926;DHT22;6529;50.566;9.774;2022-11-20T14:39:55;2.50;99.90
12926;DHT22;6529;50.566;9.774;2022-11-20T14:42:25;2.50;99.90
12926;DHT22;6529;50.566;9.774;2022-11-20T14:44:55;2.50;99.90
12926;DHT22;6529;50.566;9.774;2022-11-20T14:47:23;2.60;99.90
12926;DHT22;6529;50.566;9.774;2022-11-20T14:49:51;2.50;99.90
12926;DHT22;6529;50.566;9.774;2022-11-20T14:52:27;2.50;99.90
12926;DHT22;6529;50.566;9.774;2022-11-20T14:54:54;2.50;99.90
12926;DHT22;6529;50.566;9.774;2022-11-20T14:57:35;2.50;99.90
12926;DHT22;6529;50.566;9.774;2022-11-20T15:02:30;2.40;99.90
12926;DHT22;6529;50.566;9.774;2022-11-20T15:05:00;2.50;99.90
12926;DHT22;6529;50.566;9.774;2022-11-20T15:07:37;2.40;99.90
12926;DHT22;6529;50.566;9.774;2022-11-20T15:10:04;2.40;99.90
12926;DHT22;6529;50.566;9.774;2022-11-20T15:12:32;2.40;99.90
12926;DHT22;6529;50.566;9.774;2022-11-20T15:14:58;2.40;99.90
12926;DHT22;6529;50.566;9.774;2022-11-20T15:17:24;2.40;99.90
12926;DHT22;6529;50.566;9.774;2022-11-20T15:19:50;2.40;99.90
12926;DHT22;6529;50.566;9.774;2022-11-20T15:22:16;2.40;99.90
12926;DHT22;6529;50.566;9.774;2022-11-20T15:24:42;2.30;99.90
12926;DHT22;6529;50.566;9.774;2022-11-20T15:27:08;2.40;99.90
12926;DHT22;6529;50.566;9.774;2022-11-20T15:29:34;2.40;99.90
12926;DHT22;6529;50.566;9.774;2022-11-20T15:32:00;2.40;99.90
12926;DHT22;6529;50.566;9.774;2022-11-20T15:34:27;2.40;99.90
12926;DHT22;6529;50.566;9.774;2022-11-20T15:36:52;2.30;99.90
12926;DHT22;6529;50.566;9.774;2022-11-20T15:39:19;2.30;99.90
12926;DHT22;6529;50.566;9.774;2022-11-20T15:41:45;2.30;99.90
12926;DHT22;6529;50.566;9.774;2022-11-20T15:44:10;2.30;99.90
12926;DHT22;6529;50.566;9.774;2022-11-20T15:46:39;2.30;99.90
12926;DHT22;6529;50.566;9.774;2022-11-20T15:49:12;2.30;99.90
12926;DHT22;6529;50.566;9.774;2022-11-20T15:51:39;2.20;99.90
12926;DHT22;6529;50.566;9.774;2022-11-20T15:54:18;2.10;99.90
12926;DHT22;6529;50.566;9.774;2022-11-20T15:56:49;2.10;99.90
12926;DHT22;6529;50.566;9.774;2022-11-20T15:59:15;2.10;99.90
12926;DHT22;6529;50.566;9.774;2022-11-20T16:01:41;2.10;99.90
12926;DHT22;6529;50.566;9.774;2022-11-20T16:04:15;2.10;99.90
12926;DHT22;6529;50.566;9.774;2022-11-20T16:06:41;2.10;99.90
12926;DHT22;6529;50.566;9.774;2022-11-20T16:09:07;2.10;99.90
12926;DHT22;6529;50.566;9.774;2022-11-20T16:11:33;2.10;99.90
12926;DHT22;6529;50.566;9.774;2022-11-20T16:14:00;2.10;99.90
12926;DHT22;6529;50.566;9.774;2022-11-20T16:16:44;2.20;99.90
12926;DHT22;6529;50.566;9.774;2022-11-20T16:19:11;2.20;99.90
12926;DHT22;6529;50.566;9.774;2022-11-20T16:21:37;2.30;99.90
12926;DHT22;6529;50.566;9.774;2022-11-20T16:24:09;2.30;99.90
12926;DHT22;6529;50.566;9.774;2022-11-20T16:26:36;2.30;99.90
12926;DHT22;6529;50.566;9.774;2022-11-20T16:29:05;2.30;99.90
12926;DHT22;6529;50.566;9.774;2022-11-20T16:31:31;2.20;99.90
12926;DHT22;6529;50.566;9.774;2022-11-20T16:34:00;2.20;99.90
12926;DHT22;6529;50.566;9.774;2022-11-20T16:36:27;2.30;99.90
12926;DHT22;6529;50.566;9.774;2022-11-20T16:39:03;2.30;99.90
12926;DHT22;6529;50.566;9.774;2022-11-20T16:41:31;2.30;99.90
12926;DHT22;6529;50.566;9.774;2022-11-20T16:43:59;2.30;99.90
12926;DHT22;6529;50.566;9.774;2022-11-20T16:46:29;2.30;99.90
12926;DHT22;6529;50.566;9.774;2022-11-20T16:48:57;2.30;99.90
12926;DHT22;6529;50.566;9.774;2022-11-20T16:51:24;2.40;99.90
12926;DHT22;6529;50.566;9.774;2022-11-20T16:53:50;2.40;99.90
12926;DHT22;6529;50.566;9.774;2022-11-20T16:56:18;2.40;99.90
12926;DHT22;6529;50.566;9.774;2022-11-20T16:58:45;2.50;99.90
12926;DHT22;6529;50.566;9.774;2022-11-20T17:01:13;2.50;99.90
12926;DHT22;6529;50.566;9.774;2022-11-20T17:03:41;2.50;99.90
12926;DHT22;6529;50.566;9.774;2022-11-20T17:06:15;2.50;99.90
12926;DHT22;6529;50.566;9.774;2022-11-20T17:08:41;2.60;99.90
12926;DHT22;6529;50.566;9.774;2022-11-20T17:11:08;2.60;99.90
12926;DHT22;6529;50.566;9.774;2022-11-20T17:13:35;2.60;99.90
12926;DHT22;6529;50.566;9.774;2022-11-20T17:16:09;2.70;99.90
12926;DHT22;6529;50.566;9.774;2022-11-20T17:18:35;2.70;99.90
12926;DHT22;6529;50.566;9.774;2022-11-20T17:21:01;2.70;99.90
12926;DHT22;6529;50.566;9.774;2022-11-20T17:23:40;2.70;99.90
12926;DHT22;6529;50.566;9.774;2022-11-20T17:26:09;2.70;99.90
12926;DHT22;6529;50.566;9.774;2022-11-20T17:28:35;2.70;99.90
12926;DHT22;6529;50.566;9.774;2022-11-20T17:31:03;2.70;99.90
12926;DHT22;6529;50.566;9.774;2022-11-20T17:33:29;2.70;99.90
12926;DHT22;6529;50.566;9.774;2022-11-20T17:35:55;2.80;99.90
12926;DHT22;6529;50.566;9.774;2022-11-20T17:38:21;2.80;99.90
12926;DHT22;6529;50.566;9.774;2022-11-20T17:40:46;2.80;99.90
12926;DHT22;6529;50.566;9.774;2022-11-20T17:43:12;2.90;99.90
12926;DHT22;6529;50.566;9.774;2022-11-20T17:45:37;2.90;99.90
12926;DHT22;6529;50.566;9.774;2022-11-20T17:48:03;2.90;99.90
12926;DHT22;6529;50.566;9.774;2022-11-20T17:50:29;2.90;99.90
12926;DHT22;6529;50.566;9.774;2022-11-20T17:52:54;2.90;99.90
12926;DHT22;6529;50.566;9.774;2022-11-20T17:55:20;2.90;99.90
12926;DHT22;6529;50.566;9.774;2022-11-20T17:57:45;2.90;99.90
12926;DHT22;6529;50.566;9.774;2022-11-20T18:00:18;2.90;99.90
12926;DHT22;6529;50.566;9.774;2022-11-20T18:02:43;2.90;99.90